Terminal Aerodrome Forecast
Issued by NWS

Current Version | Previous Version | Text Only | Print | Product List | Glossary On
Versions: 1 2 3 4 5 6 7 8 9 10 11 12
000
FTUS45 KLKN 211100
TAFEKO
TAF
KEKO 211120Z 2112/2212 VRB03KT P6SM SCT250
     FM212000 24015G25KT P6SM BKN200
     FM220200 28008KT P6SM BKN130=

USA.gov is the U.S. government's official web portal to all federal, state and local government web resources and services.